createdAt,value
2023-07-24T00:00:23.996Z,98504.36
2023-07-24T00:05:51.214Z,98498.25
2023-07-24T00:10:58.512Z,98496.98
2023-07-24T00:16:12.208Z,98493.52
2023-07-24T00:21:19.805Z,98493.90
2023-07-24T00:26:27.589Z,98490.98
2023-07-24T00:31:35.111Z,98488.06
2023-07-24T00:36:43.042Z,98485.07
2023-07-24T00:41:50.377Z,98481.62
2023-07-24T00:46:57.857Z,98477.06
2023-07-24T00:52:05.439Z,98477.79
2023-07-24T00:57:13.120Z,98475.52
2023-07-24T01:02:20.326Z,98469.50
2023-07-24T01:07:27.592Z,98467.36
2023-07-24T01:12:38.112Z,98465.39
2023-07-24T01:17:51.301Z,98469.13
2023-07-24T01:23:33.699Z,98460.17
2023-07-24T01:28:42.100Z,98462.93
2023-07-24T01:33:49.687Z,98458.13
2023-07-24T01:38:57.583Z,98457.84
2023-07-24T01:44:04.866Z,98452.99
2023-07-24T01:49:12.567Z,98454.23
2023-07-24T01:54:21.522Z,98457.96
2023-07-24T01:59:28.837Z,98468.52
2023-07-24T02:04:36.272Z,98468.88
2023-07-24T02:09:43.776Z,98467.02
2023-07-24T02:14:52.898Z,98466.51
2023-07-24T02:20:00.708Z,98463.52
2023-07-24T02:25:10.319Z,98466.31
2023-07-24T02:30:17.942Z,98466.55
2023-07-24T02:35:25.801Z,98462.73
2023-07-24T02:40:34.128Z,98464.20
2023-07-24T02:45:42.052Z,98459.82
2023-07-24T02:50:52.316Z,98456.92
2023-07-24T02:55:59.709Z,98457.70
2023-07-24T03:01:10.454Z,98460.72
2023-07-24T03:06:18.014Z,98456.00
2023-07-24T03:11:25.793Z,98460.17
2023-07-24T03:16:33.423Z,98457.40
2023-07-24T03:21:41.835Z,98455.86
2023-07-24T03:26:49.286Z,98452.05
2023-07-24T03:31:57.015Z,98451.09
2023-07-24T03:37:04.981Z,98447.97
2023-07-24T03:42:14.532Z,98444.89
2023-07-24T03:47:22.081Z,98443.80
2023-07-24T03:52:29.786Z,98453.73
2023-07-24T03:57:37.360Z,98453.22
2023-07-24T04:02:45.000Z,98452.76
2023-07-24T04:07:52.584Z,98453.43
2023-07-24T04:15:43.247Z,98452.48
2023-07-24T04:20:50.678Z,98458.06
2023-07-24T04:25:58.272Z,98459.44
2023-07-24T04:31:05.776Z,98467.25
2023-07-24T04:36:14.094Z,98467.89
2023-07-24T04:41:22.920Z,98463.66
2023-07-24T04:46:30.847Z,98463.86
2023-07-24T04:51:38.848Z,98462.55
2023-07-24T04:56:46.413Z,98465.05
2023-07-24T05:01:54.223Z,98465.23
2023-07-24T05:07:02.092Z,98455.01
2023-07-24T05:12:11.472Z,98447.64
2023-07-24T05:17:19.189Z,98444.84
2023-07-24T05:22:26.702Z,98449.65
2023-07-24T05:27:34.384Z,98448.55
2023-07-24T05:38:21.689Z,98448.31
2023-07-24T05:43:31.037Z,98451.49
2023-07-24T05:48:38.576Z,98453.60
2023-07-24T05:53:46.833Z,98453.80
2023-07-24T05:58:54.432Z,98452.02
2023-07-24T06:04:01.811Z,98457.94
2023-07-24T06:09:09.757Z,98455.76
2023-07-24T06:14:17.594Z,98456.88
2023-07-24T06:19:25.592Z,98447.73
2023-07-24T06:24:33.878Z,98445.55
2023-07-24T06:29:42.183Z,98456.20
2023-07-24T06:34:50.175Z,98454.08
2023-07-24T06:39:57.856Z,98450.01
2023-07-24T06:45:08.357Z,98438.42
2023-07-24T06:50:16.597Z,98432.09
2023-07-24T06:55:24.138Z,98438.55
2023-07-24T07:00:32.228Z,98441.58
2023-07-24T07:05:39.573Z,98444.80
2023-07-24T07:10:46.981Z,98447.39
2023-07-24T07:15:54.667Z,98439.02
2023-07-24T07:21:03.252Z,98437.81
2023-07-24T07:26:10.820Z,98431.65
2023-07-24T07:31:19.144Z,98439.91
2023-07-24T07:36:27.190Z,98437.76
2023-07-24T07:41:34.805Z,98440.14
2023-07-24T07:46:42.108Z,98440.95
2023-07-24T07:51:50.034Z,98429.44
2023-07-24T07:57:01.047Z,98420.35
2023-07-24T08:02:09.430Z,98415.42
2023-07-24T08:07:16.891Z,98408.63
2023-07-24T08:12:24.807Z,98411.58
2023-07-24T08:17:32.416Z,98403.53
2023-07-24T08:22:40.215Z,98402.05
2023-07-24T08:28:03.646Z,98405.58
2023-07-24T08:33:14.299Z,98401.56
2023-07-24T08:38:21.711Z,98395.02
2023-07-24T08:43:29.318Z,98392.17
2023-07-24T08:48:38.503Z,98392.08
2023-07-24T08:53:48.610Z,98389.09
2023-07-24T08:58:55.910Z,98374.75
2023-07-24T09:04:03.661Z,98374.21
2023-07-24T09:09:18.811Z,98375.04
2023-07-24T09:14:29.755Z,98361.54
2023-07-24T09:19:40.229Z,98368.70
2023-07-24T09:24:59.238Z,98371.32
2023-07-24T09:30:16.275Z,98370.13
2023-07-24T09:35:28.455Z,98374.75
2023-07-24T09:40:47.490Z,98361.77
2023-07-24T09:45:57.042Z,98357.09
2023-07-24T09:51:04.677Z,98340.27
2023-07-24T09:56:13.765Z,98325.98
2023-07-24T10:01:21.509Z,98322.67
2023-07-24T10:06:31.559Z,98320.09
2023-07-24T10:11:39.322Z,98308.16
2023-07-24T10:16:47.621Z,98279.30
2023-07-24T10:21:55.852Z,98283.27
2023-07-24T10:27:05.142Z,98300.31
2023-07-24T10:32:22.475Z,98297.31
2023-07-24T10:37:40.083Z,98300.67
2023-07-24T10:42:48.661Z,98291.40
2023-07-24T10:47:56.452Z,98293.45
2023-07-24T10:53:05.816Z,98298.05
2023-07-24T10:58:14.582Z,98297.02
2023-07-24T11:03:22.142Z,98289.20
2023-07-24T11:08:29.702Z,98285.16
2023-07-24T11:13:37.405Z,98286.13
2023-07-24T11:18:55.128Z,98281.98
2023-07-24T11:24:10.799Z,98282.52
2023-07-24T11:29:19.144Z,98283.30
2023-07-24T11:34:27.382Z,98282.24
2023-07-24T11:39:35.057Z,98276.10
2023-07-24T11:44:42.661Z,98270.42
2023-07-24T11:50:00.674Z,98258.92
2023-07-24T11:55:09.887Z,98252.63
2023-07-24T12:00:24.997Z,98252.14
2023-07-24T12:05:32.408Z,98245.48
2023-07-24T12:10:41.989Z,98238.16
2023-07-24T12:15:49.553Z,98228.94
2023-07-24T12:20:57.559Z,98223.76
2023-07-24T12:26:05.150Z,98213.46
2023-07-24T12:31:12.868Z,98206.15
2023-07-24T12:36:20.256Z,98190.84
2023-07-24T12:41:28.587Z,98174.33
2023-07-24T12:46:36.402Z,98159.56
2023-07-24T12:51:43.748Z,98157.41
2023-07-24T12:56:51.104Z,98149.27
2023-07-24T13:01:58.700Z,98143.44
2023-07-24T13:07:06.127Z,98137.64
2023-07-24T13:12:15.126Z,98126.91
2023-07-24T13:17:22.773Z,98118.27
2023-07-24T13:22:30.077Z,98112.94
2023-07-24T13:27:37.760Z,98098.39
2023-07-24T13:38:26.002Z,98064.54
2023-07-24T13:43:34.379Z,98055.30
2023-07-24T13:48:42.262Z,98047.33
2023-07-24T13:53:53.243Z,98037.92
2023-07-24T13:59:01.426Z,98031.88
2023-07-24T14:04:09.210Z,98019.73
2023-07-24T14:09:16.989Z,98003.08
2023-07-24T14:14:26.110Z,97992.90
2023-07-24T14:19:33.652Z,97978.52
2023-07-24T14:24:41.578Z,97978.22
2023-07-24T14:29:48.814Z,97980.81
2023-07-24T14:38:59.195Z,97976.64
2023-07-24T14:44:07.414Z,97972.52
2023-07-24T14:49:15.132Z,97968.41
2023-07-24T14:54:23.019Z,97964.79
2023-07-24T14:59:30.839Z,97965.40
2023-07-24T15:04:38.685Z,97951.23
2023-07-24T15:09:46.623Z,97938.15
2023-07-24T15:14:54.172Z,97925.22
2023-07-24T15:20:01.525Z,97915.48
2023-07-24T15:25:11.558Z,97902.34
2023-07-24T15:30:19.498Z,97897.73
2023-07-24T15:35:26.978Z,97882.15
2023-07-24T15:40:35.727Z,97870.27
2023-07-24T15:45:43.639Z,97863.73
2023-07-24T15:50:51.117Z,97868.23
2023-07-24T15:55:58.384Z,97857.37
2023-07-24T16:01:06.110Z,97849.30
2023-07-24T16:06:14.409Z,97850.36
2023-07-24T16:11:22.269Z,97850.58
2023-07-24T16:16:30.107Z,97845.93
2023-07-24T16:21:39.754Z,97840.67
2023-07-24T16:26:48.013Z,97840.08
2023-07-24T16:37:08.221Z,97829.52
2023-07-24T16:42:16.032Z,97825.18
2023-07-24T16:47:25.028Z,97817.20
2023-07-24T16:52:32.608Z,97814.58
2023-07-24T16:57:40.152Z,97805.34
2023-07-24T17:02:48.048Z,97794.61
2023-07-24T17:07:55.990Z,97799.09
2023-07-24T17:13:03.350Z,97864.04
2023-07-24T17:18:10.924Z,97863.24
2023-07-24T17:23:19.753Z,97846.00
2023-07-24T17:28:27.304Z,97899.33
2023-07-24T17:33:35.002Z,97917.73
2023-07-24T17:38:42.253Z,97901.30
2023-07-24T17:43:49.579Z,97876.84
2023-07-24T17:48:57.220Z,97897.30
2023-07-24T17:54:05.167Z,97908.15
2023-07-24T17:59:13.144Z,97962.02
2023-07-24T18:04:21.892Z,98016.42
2023-07-24T18:09:29.399Z,98002.74
2023-07-24T18:14:40.725Z,98023.63
2023-07-24T18:19:50.149Z,98049.94
2023-07-24T18:24:57.871Z,98058.07
2023-07-24T18:30:06.382Z,98064.33
2023-07-24T18:35:14.852Z,98054.91
2023-07-24T18:40:22.625Z,98085.77
2023-07-24T18:45:30.765Z,98097.38
2023-07-24T18:50:38.298Z,98090.20
2023-07-24T18:55:45.888Z,98067.20
2023-07-24T19:00:53.448Z,98059.28
2023-07-24T19:06:02.336Z,98015.05
2023-07-24T19:11:10.043Z,97972.17
2023-07-24T19:16:17.459Z,97948.88
2023-07-24T19:21:24.850Z,97948.59
2023-07-24T19:26:32.499Z,97934.91
2023-07-24T19:31:40.136Z,97931.46
2023-07-24T19:36:47.936Z,97927.17
2023-07-24T19:41:55.383Z,97904.38
2023-07-24T19:47:02.995Z,97912.47
2023-07-24T19:52:11.525Z,97884.80
2023-07-24T19:57:19.037Z,97870.25
2023-07-24T20:02:26.892Z,97900.72
2023-07-24T20:07:34.440Z,97917.93
2023-07-24T20:12:42.541Z,97919.27
2023-07-24T20:17:49.822Z,97939.04
2023-07-24T20:22:58.803Z,97975.63
2023-07-24T20:28:06.823Z,97999.66
2023-07-24T20:33:14.871Z,97936.08
2023-07-24T20:38:26.840Z,97902.75
2023-07-24T20:43:34.666Z,97870.63
2023-07-24T20:48:42.523Z,97839.55
2023-07-24T20:53:50.853Z,97782.12
2023-07-24T20:58:59.260Z,97802.96
2023-07-24T21:04:08.576Z,97840.61
2023-07-24T21:09:17.413Z,97847.05
2023-07-24T21:14:25.352Z,97845.56
2023-07-24T21:19:32.828Z,97844.59
2023-07-24T21:24:40.757Z,97850.05
2023-07-24T21:29:48.618Z,97843.17
2023-07-24T21:34:55.975Z,97828.08
2023-07-24T21:40:03.611Z,97812.52
2023-07-24T21:45:12.300Z,97805.77
2023-07-24T21:50:20.497Z,97815.73
2023-07-24T21:55:28.779Z,97821.73
2023-07-24T22:00:36.508Z,97830.29
2023-07-24T22:05:44.146Z,97822.04
2023-07-24T22:10:52.060Z,97808.71
2023-07-24T22:15:59.485Z,97805.23
2023-07-24T22:21:07.290Z,97814.54
2023-07-24T22:26:14.987Z,97786.27
2023-07-24T22:31:23.535Z,97774.95
2023-07-24T22:36:33.309Z,97773.05
2023-07-24T22:41:42.562Z,97769.59
2023-07-24T22:46:50.159Z,97767.75
2023-07-24T22:51:58.214Z,97788.88
2023-07-24T22:57:08.452Z,97791.80
2023-07-24T23:02:16.117Z,97792.23
2023-07-24T23:07:25.099Z,97802.61
2023-07-24T23:12:32.415Z,97807.35
2023-07-24T23:17:39.617Z,97815.16
2023-07-24T23:22:47.096Z,97819.25
2023-07-24T23:27:54.360Z,97829.05
2023-07-24T23:38:39.040Z,97824.94
2023-07-24T23:43:46.779Z,97827.30
2023-07-24T23:48:54.189Z,97817.52
2023-07-24T23:54:01.693Z,97811.24
2023-07-24T23:59:09.461Z,97827.70
